Time;durP1;ratioP1;P1;durP2;ratioP2;P2;SDS_P1;SDS_P2;PMS_P1;PMS_P2;Temp;Humidity;BMP_temperature;BMP_pressure;BME280_temperature;BME280_humidity;BME280_pressure;Samples;Min_cycle;Max_cycle;Signal;HPM_P1;HPM_P2
2023/05/15 00:00:12;;;;;;;57.47;33.77;;;9.60;99.90;;;;;;4842904;29;20302;-64
2023/05/15 00:02:42;;;;;;;61.33;34.57;;;9.50;99.90;;;;;;4867224;29;20226;-64
2023/05/15 00:05:11;;;;;;;62.13;33.73;;;9.50;99.90;;;;;;4856570;29;20314;-64
2023/05/15 00:07:40;;;;;;;62.63;34.07;;;9.50;99.90;;;;;;4849784;29;20227;-64
2023/05/15 00:10:09;;;;;;;65.03;34.87;;;9.50;99.90;;;;;;4847382;29;20232;-64
2023/05/15 00:12:37;;;;;;;58.20;33.83;;;9.50;99.90;;;;;;4855262;29;20200;-64
2023/05/15 00:15:06;;;;;;;63.53;35.77;;;9.50;99.90;;;;;;4853541;29;20191;-64
2023/05/15 00:17:34;;;;;;;63.30;35.60;;;9.50;99.90;;;;;;4876704;29;20226;-64
2023/05/15 00:20:05;;;;;;;66.80;36.23;;;9.50;99.90;;;;;;4861825;29;20218;-64
2023/05/15 00:22:33;;;;;;;63.30;35.03;;;9.50;99.90;;;;;;4857362;29;20281;-64
2023/05/15 00:25:02;;;;;;;68.07;37.63;;;9.50;99.90;;;;;;4852891;29;20280;-64
2023/05/15 00:27:30;;;;;;;67.83;36.10;;;9.50;99.90;;;;;;4851877;29;20282;-64
2023/05/15 00:29:58;;;;;;;61.50;35.90;;;9.50;99.90;;;;;;4857700;29;20206;-64
2023/05/15 00:32:26;;;;;;;64.67;36.80;;;9.50;99.90;;;;;;4844091;29;20232;-64
2023/05/15 00:34:54;;;;;;;68.80;37.67;;;9.50;99.90;;;;;;4853085;29;20219;-64
2023/05/15 00:37:25;;;;;;;69.43;37.30;;;9.50;99.90;;;;;;4863136;29;20255;-64
2023/05/15 00:39:53;;;;;;;77.97;38.77;;;9.50;99.90;;;;;;4856613;29;20227;-64
2023/05/15 00:42:22;;;;;;;68.57;36.30;;;9.50;99.90;;;;;;4863161;29;20244;-64
2023/05/15 00:44:52;;;;;;;70.43;37.27;;;9.50;99.90;;;;;;4847142;29;20288;-64
2023/05/15 00:47:22;;;;;;;72.27;38.50;;;9.50;99.90;;;;;;4867885;29;20230;-64
2023/05/15 00:49:51;;;;;;;66.27;36.80;;;9.50;99.90;;;;;;4850584;29;20238;-65
2023/05/15 00:52:21;;;;;;;69.63;38.57;;;9.50;99.90;;;;;;4851595;29;20231;-65
2023/05/15 00:54:50;;;;;;;67.73;36.63;;;9.50;99.90;;;;;;4859765;29;20694;-65
2023/05/15 00:57:20;;;;;;;70.50;37.60;;;9.60;99.90;;;;;;4864285;29;20229;-64
2023/05/15 00:59:49;;;;;;;71.40;38.17;;;9.60;99.90;;;;;;4857386;29;20231;-64
2023/05/15 01:05:56;;;;;;;64.13;36.57;;;9.50;99.90;;;;;;5182916;24;20694;-64
2023/05/15 01:11:53;;;;;;;72.63;37.50;;;9.50;99.90;;;;;;4821501;29;20213;-65
2023/05/15 01:14:21;;;;;;;72.77;39.57;;;9.40;99.90;;;;;;4837481;29;20228;-64
2023/05/15 01:16:50;;;;;;;69.70;38.77;;;9.40;99.90;;;;;;4833688;29;20690;-65
2023/05/15 01:19:18;;;;;;;70.53;37.83;;;9.40;99.90;;;;;;4854903;29;20228;-65
2023/05/15 01:22:09;;;;;;;78.77;40.23;;;9.40;99.90;;;;;;4831993;29;20233;-64
2023/05/15 01:25:05;;;;;;;72.80;38.70;;;9.40;99.90;;;;;;4833763;29;20205;-64
2023/05/15 01:27:39;;;;;;;71.93;39.77;;;9.40;99.90;;;;;;4834385;29;20228;-65
2023/05/15 01:30:16;;;;;;;76.07;40.40;;;9.40;99.90;;;;;;4842981;29;20244;-64
2023/05/15 01:32:54;;;;;;;70.43;37.87;;;9.30;99.90;;;;;;4835113;29;20725;-64
2023/05/15 01:35:28;;;;;;;71.63;40.13;;;9.30;99.90;;;;;;4825609;29;20629;-64
2023/05/15 01:38:12;;;;;;;81.73;40.93;;;9.30;99.90;;;;;;4826541;29;20224;-64
2023/05/15 01:40:42;;;;;;;77.67;41.93;;;9.30;99.90;;;;;;4837079;29;20224;-64
2023/05/15 01:43:15;;;;;;;77.30;41.43;;;9.20;99.90;;;;;;4832640;29;20796;-64
2023/05/15 01:45:44;;;;;;;79.33;42.93;;;9.20;99.90;;;;;;4836049;29;20227;-64
2023/05/15 01:48:15;;;;;;;83.73;42.30;;;9.20;99.90;;;;;;4842740;29;20689;-64
2023/05/15 01:50:45;;;;;;;88.07;44.23;;;9.20;99.90;;;;;;4839722;29;20228;-64
2023/05/15 01:53:15;;;;;;;87.20;44.80;;;9.20;99.90;;;;;;4828616;29;20287;-63
2023/05/15 01:55:44;;;;;;;85.57;43.63;;;9.20;99.90;;;;;;4841883;29;20228;-64
2023/05/15 01:58:15;;;;;;;84.20;43.83;;;9.20;99.90;;;;;;4842316;29;20560;-64
2023/05/15 02:00:44;;;;;;;83.57;44.03;;;9.20;99.90;;;;;;4842013;29;20625;-64
2023/05/15 02:03:14;;;;;;;86.20;42.37;;;9.10;99.90;;;;;;4855586;29;20219;-63
2023/05/15 02:05:42;;;;;;;81.03;42.10;;;9.10;99.90;;;;;;4860226;29;20706;-64
2023/05/15 02:08:12;;;;;;;83.43;42.50;;;9.10;99.90;;;;;;4860021;29;20287;-63
2023/05/15 02:10:41;;;;;;;85.73;43.67;;;9.00;99.90;;;;;;4860257;29;20619;-64
2023/05/15 02:13:10;;;;;;;81.17;42.30;;;9.00;99.90;;;;;;4842165;29;20227;-64
2023/05/15 02:15:39;;;;;;;80.40;40.03;;;9.00;99.90;;;;;;4842110;29;20230;-64
2023/05/15 02:18:07;;;;;;;81.53;42.20;;;9.00;99.90;;;;;;4844886;29;20232;-64
2023/05/15 02:20:36;;;;;;;85.93;44.03;;;9.00;99.90;;;;;;4859858;29;20230;-63
2023/05/15 02:23:04;;;;;;;93.67;45.87;;;9.00;99.90;;;;;;4860529;29;20227;-65
2023/05/15 02:25:42;;;;;;;98.83;47.33;;;9.00;99.90;;;;;;4860413;29;20225;-63
2023/05/15 02:28:17;;;;;;;94.27;45.10;;;9.10;99.90;;;;;;4852081;29;20497;-64
2023/05/15 02:34:36;;;;;;;100.70;48.07;;;9.20;99.90;;;;;;4850030;29;20285;-63
2023/05/15 02:37:08;;;;;;;99.63;49.00;;;9.30;99.90;;;;;;4863157;29;20271;-64
2023/05/15 02:39:38;;;;;;;108.50;49.07;;;9.40;99.90;;;;;;4861821;29;20191;-64
2023/05/15 02:42:08;;;;;;;103.73;49.80;;;9.40;99.90;;;;;;4857350;29;20224;-64
2023/05/15 02:44:39;;;;;;;99.93;50.07;;;9.40;99.90;;;;;;4858070;29;20227;-64
2023/05/15 02:47:08;;;;;;;104.43;49.73;;;9.40;99.90;;;;;;4851309;29;20264;-64
2023/05/15 02:49:39;;;;;;;111.00;51.57;;;9.40;99.90;;;;;;4851701;29;20223;-64
2023/05/15 02:52:07;;;;;;;100.67;48.63;;;9.50;99.90;;;;;;4854779;29;20268;-64
2023/05/15 02:54:35;;;;;;;106.17;49.40;;;9.50;99.90;;;;;;4840879;29;20207;-65
2023/05/15 02:57:04;;;;;;;110.03;51.03;;;9.40;99.90;;;;;;4851371;29;20240;-65
2023/05/15 02:59:32;;;;;;;110.00;51.40;;;9.40;99.90;;;;;;4853262;29;20763;-59
2023/05/15 03:02:02;;;;;;;106.30;49.53;;;9.40;99.90;;;;;;4863682;29;20258;-59
2023/05/15 03:04:30;;;;;;;112.60;49.23;;;9.40;99.90;;;;;;4854906;29;20239;-59
2023/05/15 03:07:00;;;;;;;108.50;49.60;;;9.40;99.90;;;;;;4851337;29;20240;-60
2023/05/15 03:09:31;;;;;;;101.97;47.57;;;9.40;99.90;;;;;;4856060;29;20204;-59
2023/05/15 03:11:59;;;;;;;108.50;49.13;;;9.40;99.90;;;;;;4853407;29;20536;-60
2023/05/15 03:14:27;;;;;;;112.77;51.13;;;9.40;99.90;;;;;;4855080;29;20256;-59
2023/05/15 03:16:56;;;;;;;108.13;48.23;;;9.30;99.90;;;;;;4845838;29;20338;-59
2023/05/15 03:19:24;;;;;;;109.97;49.40;;;9.40;99.90;;;;;;4852223;29;20280;-60
2023/05/15 03:21:52;;;;;;;111.93;52.07;;;9.30;99.90;;;;;;4829360;29;20632;-59
2023/05/15 03:24:21;;;;;;;108.60;50.43;;;9.40;99.90;;;;;;4865878;29;20292;-60
2023/05/15 03:26:50;;;;;;;105.63;48.40;;;9.40;99.90;;;;;;4852552;29;20272;-59
2023/05/15 03:29:18;;;;;;;101.47;46.83;;;9.30;99.90;;;;;;4852659;29;20265;-59
2023/05/15 03:31:46;;;;;;;100.63;46.03;;;9.40;99.90;;;;;;4854078;29;20254;-60
2023/05/15 03:34:14;;;;;;;106.93;47.87;;;9.40;99.90;;;;;;4852269;29;20651;-60
2023/05/15 03:36:42;;;;;;;100.33;47.80;;;9.40;99.90;;;;;;4861223;29;20227;-60
2023/05/15 03:39:11;;;;;;;112.10;47.37;;;9.30;99.90;;;;;;4837950;29;20219;-60
2023/05/15 03:41:40;;;;;;;109.10;48.63;;;9.30;99.90;;;;;;4841847;29;20219;-60
2023/05/15 03:44:08;;;;;;;103.00;45.97;;;9.30;99.90;;;;;;4851102;29;20690;-61
2023/05/15 03:46:37;;;;;;;94.50;45.50;;;9.30;99.90;;;;;;4858267;29;20302;-60
2023/05/15 03:49:05;;;;;;;89.87;43.90;;;9.30;99.90;;;;;;4852645;29;20331;-60
2023/05/15 03:51:33;;;;;;;89.67;44.67;;;9.30;99.90;;;;;;4856006;29;20248;-60
2023/05/15 03:54:03;;;;;;;95.27;45.13;;;9.30;99.90;;;;;;4852932;29;20256;-60
2023/05/15 03:56:32;;;;;;;94.47;44.63;;;9.20;99.90;;;;;;4851698;29;20219;-59
2023/05/15 03:59:01;;;;;;;92.03;45.17;;;9.20;99.90;;;;;;4847743;29;20273;-59
2023/05/15 04:01:30;;;;;;;90.30;43.80;;;9.30;99.90;;;;;;4853082;29;20234;-60
2023/05/15 04:03:58;;;;;;;92.53;45.07;;;9.30;99.90;;;;;;4849401;29;20643;-60
2023/05/15 04:06:26;;;;;;;97.13;46.07;;;9.40;99.90;;;;;;4861624;29;20204;-60
2023/05/15 04:08:54;;;;;;;90.20;41.90;;;9.40;99.90;;;;;;4862494;29;20267;-60
2023/05/15 04:11:24;;;;;;;81.53;41.60;;;9.30;99.90;;;;;;4861934;29;20231;-60
2023/05/15 04:13:52;;;;;;;81.60;40.83;;;9.30;99.90;;;;;;4861852;29;20227;-59
2023/05/15 04:16:22;;;;;;;85.73;42.63;;;9.30;99.90;;;;;;4861945;29;20219;-60
2023/05/15 04:18:50;;;;;;;85.67;42.93;;;9.30;99.90;;;;;;4861860;29;20259;-60
2023/05/15 04:21:18;;;;;;;90.67;42.40;;;9.30;99.90;;;;;;4862374;29;20623;-60
2023/05/15 04:23:46;;;;;;;84.67;40.13;;;9.20;99.90;;;;;;4858545;29;20228;-60
2023/05/15 04:26:14;;;;;;;93.27;42.77;;;9.20;99.90;;;;;;4860477;29;20235;-60
2023/05/15 04:28:42;;;;;;;83.37;41.87;;;9.20;99.90;;;;;;4853058;29;20629;-60
2023/05/15 04:31:24;;;;;;;92.03;41.50;;;9.10;99.90;;;;;;4848637;29;20649;-60
2023/05/15 04:33:53;;;;;;;86.37;40.40;;;9.20;99.90;;;;;;4851508;29;20231;-60
2023/05/15 04:36:21;;;;;;;88.00;40.83;;;9.20;99.90;;;;;;4861730;29;20195;-60
2023/05/15 04:38:50;;;;;;;86.27;42.23;;;9.20;99.90;;;;;;4860034;29;20215;-60
2023/05/15 04:41:18;;;;;;;93.07;42.37;;;9.30;99.90;;;;;;4855797;29;20575;-60
2023/05/15 04:44:05;;;;;;;91.30;43.20;;;9.30;99.90;;;;;;4861136;29;20223;-60
2023/05/15 04:46:38;;;;;;;94.03;43.27;;;9.40;99.90;;;;;;4851950;29;20223;-60
2023/05/15 04:49:06;;;;;;;91.53;42.73;;;9.40;99.90;;;;;;4848996;29;20276;-59
2023/05/15 04:51:34;;;;;;;92.20;42.60;;;9.40;99.90;;;;;;4853979;29;20215;-60
2023/05/15 04:54:03;;;;;;;85.20;39.27;;;9.40;99.90;;;;;;4847510;29;20237;-60
2023/05/15 04:56:32;;;;;;;89.87;41.50;;;9.40;99.90;;;;;;4857697;29;20230;-59
2023/05/15 04:59:00;;;;;;;82.83;39.47;;;9.30;99.90;;;;;;4849216;29;20223;-60
2023/05/15 05:01:28;;;;;;;88.03;39.77;;;9.30;99.90;;;;;;4859545;29;20231;-59
2023/05/15 05:03:58;;;;;;;88.83;40.80;;;9.30;99.90;;;;;;4841129;29;20235;-60
2023/05/15 05:06:26;;;;;;;84.33;39.60;;;9.40;99.90;;;;;;4858598;29;20207;-60
2023/05/15 05:08:57;;;;;;;82.00;39.27;;;9.40;99.90;;;;;;4857043;29;20268;-60
2023/05/15 05:11:26;;;;;;;83.07;38.67;;;9.40;99.90;;;;;;4858398;29;20231;-60
2023/05/15 05:13:54;;;;;;;87.63;40.47;;;9.40;99.90;;;;;;4842922;29;20255;-60
2023/05/15 05:16:22;;;;;;;86.43;38.37;;;9.40;99.90;;;;;;4858618;29;20231;-60
2023/05/15 05:18:50;;;;;;;87.83;40.33;;;9.40;99.90;;;;;;4861089;29;20249;-59
2023/05/15 05:21:20;;;;;;;81.97;37.70;;;9.50;99.90;;;;;;4861229;29;20295;-60
2023/05/15 05:23:48;;;;;;;83.80;38.77;;;9.50;99.90;;;;;;4859274;29;20279;-60
2023/05/15 05:26:16;;;;;;;88.97;39.33;;;9.50;99.90;;;;;;4857858;29;20284;-60
2023/05/15 05:28:44;;;;;;;82.13;38.20;;;9.50;99.90;;;;;;4858908;29;20248;-59
2023/05/15 05:31:13;;;;;;;92.20;39.37;;;9.50;99.90;;;;;;4852289;29;20226;-60
2023/05/15 05:33:41;;;;;;;85.43;37.67;;;9.60;99.90;;;;;;4848014;29;20226;-61
2023/05/15 05:36:09;;;;;;;84.80;37.63;;;9.60;99.90;;;;;;4855502;29;20227;-60
2023/05/15 05:38:39;;;;;;;85.70;36.73;;;9.70;99.90;;;;;;4851009;29;20224;-60
2023/05/15 05:41:07;;;;;;;89.47;37.20;;;9.70;99.90;;;;;;4850811;29;20223;-60
2023/05/15 05:43:35;;;;;;;89.03;37.53;;;9.70;99.90;;;;;;4860358;29;20227;-60
2023/05/15 05:46:03;;;;;;;85.87;35.10;;;9.70;99.90;;;;;;4842265;29;20272;-59
2023/05/15 05:48:32;;;;;;;88.63;36.23;;;9.80;99.90;;;;;;4878331;29;20546;-60
2023/05/15 05:51:00;;;;;;;97.77;37.33;;;9.80;99.90;;;;;;4867376;29;20227;-59
2023/05/15 05:53:29;;;;;;;83.93;36.23;;;9.80;99.90;;;;;;4843886;29;20580;-60
2023/05/15 05:55:59;;;;;;;88.27;36.43;;;9.80;99.90;;;;;;4833205;29;20219;-60
2023/05/15 05:58:27;;;;;;;95.17;36.77;;;9.80;99.90;;;;;;4842966;29;20770;-60
2023/05/15 06:00:55;;;;;;;84.83;35.30;;;9.80;99.90;;;;;;4857094;29;20231;-60
2023/05/15 06:03:24;;;;;;;89.10;35.53;;;9.90;99.90;;;;;;4844139;29;20238;-60
2023/05/15 06:05:53;;;;;;;89.43;36.17;;;9.90;99.90;;;;;;4860358;29;20237;-60
2023/05/15 06:08:21;;;;;;;86.90;35.70;;;9.90;99.90;;;;;;4860458;29;20257;-59
2023/05/15 06:10:49;;;;;;;91.30;35.27;;;9.90;99.90;;;;;;4863787;29;20227;-60
2023/05/15 06:13:19;;;;;;;82.47;35.83;;;9.90;99.90;;;;;;4864287;29;20758;-60
2023/05/15 06:15:47;;;;;;;81.97;32.63;;;9.90;99.90;;;;;;4854110;29;20234;-60
2023/05/15 06:18:15;;;;;;;77.70;33.17;;;9.90;99.90;;;;;;4849503;29;20417;-61
2023/05/15 06:20:43;;;;;;;84.03;33.23;;;9.80;99.90;;;;;;4856351;29;20224;-60
2023/05/15 06:23:12;;;;;;;75.87;32.10;;;9.90;99.90;;;;;;4858945;29;20575;-61
2023/05/15 06:25:40;;;;;;;76.70;32.57;;;9.90;99.90;;;;;;4864069;29;20252;-60
2023/05/15 06:28:08;;;;;;;77.57;34.03;;;10.00;99.90;;;;;;4864041;29;20223;-59
2023/05/15 06:30:38;;;;;;;73.60;33.53;;;10.00;99.90;;;;;;4863955;29;20255;-60
2023/05/15 06:33:06;;;;;;;76.73;34.03;;;10.00;99.90;;;;;;4854563;29;20248;-60
2023/05/15 06:35:35;;;;;;;78.47;33.67;;;10.00;99.90;;;;;;4863954;29;20238;-59
2023/05/15 06:38:03;;;;;;;85.50;34.47;;;10.10;99.90;;;;;;4859520;29;20275;-60
2023/05/15 06:40:31;;;;;;;84.77;35.40;;;10.20;99.90;;;;;;4863953;29;20279;-59
2023/05/15 06:42:59;;;;;;;91.80;36.37;;;10.30;99.90;;;;;;4865842;29;20226;-60
2023/05/15 06:45:28;;;;;;;77.27;33.97;;;10.30;99.90;;;;;;4846487;29;20215;-59
2023/05/15 06:47:58;;;;;;;78.73;32.70;;;10.40;99.90;;;;;;4864067;29;20203;-60
2023/05/15 06:50:29;;;;;;;85.97;34.47;;;10.40;99.90;;;;;;4861218;29;20232;-59
2023/05/15 06:52:57;;;;;;;78.33;32.67;;;10.50;99.90;;;;;;4859224;29;20232;-60
2023/05/15 06:55:25;;;;;;;81.67;34.20;;;10.60;99.90;;;;;;4850606;29;20276;-60
2023/05/15 06:57:54;;;;;;;73.97;31.77;;;10.60;99.90;;;;;;4863727;29;20746;-60
2023/05/15 07:00:22;;;;;;;73.63;32.23;;;10.70;99.90;;;;;;4855260;29;20271;-60
2023/05/15 07:02:50;;;;;;;77.53;32.77;;;10.80;99.90;;;;;;4864183;29;20219;-60
2023/05/15 07:05:20;;;;;;;73.50;31.73;;;10.70;99.90;;;;;;4857834;29;20252;-60
2023/05/15 07:07:48;;;;;;;69.70;31.37;;;10.80;99.90;;;;;;4856676;29;20635;-59
2023/05/15 07:10:17;;;;;;;71.83;33.50;;;10.80;99.90;;;;;;4851116;29;20234;-59
2023/05/15 07:12:45;;;;;;;70.53;32.70;;;10.80;99.90;;;;;;4863290;29;20231;-60
2023/05/15 07:15:13;;;;;;;74.77;32.23;;;10.90;99.90;;;;;;4853126;29;20199;-59
2023/05/15 07:17:42;;;;;;;78.50;33.93;;;11.00;99.90;;;;;;4863099;29;20227;-59
2023/05/15 07:20:10;;;;;;;73.13;32.80;;;10.90;99.90;;;;;;4862852;29;20319;-59
2023/05/15 07:22:40;;;;;;;70.33;31.63;;;11.00;99.90;;;;;;4862518;29;20219;-59
2023/05/15 07:25:23;;;;;;;76.23;34.00;;;11.00;99.90;;;;;;4863184;29;20235;-60
2023/05/15 07:27:52;;;;;;;77.27;34.33;;;11.10;99.90;;;;;;4862782;29;20234;-59
2023/05/15 07:30:20;;;;;;;76.17;33.27;;;11.10;99.90;;;;;;4863322;29;20220;-59
2023/05/15 07:32:49;;;;;;;78.23;33.67;;;11.10;99.90;;;;;;4857356;29;20660;-59
2023/05/15 07:35:18;;;;;;;72.93;31.50;;;11.30;99.90;;;;;;4857226;29;20231;-60
2023/05/15 07:37:47;;;;;;;70.40;32.60;;;11.50;99.90;;;;;;4856327;29;20275;-59
2023/05/15 07:40:16;;;;;;;70.67;31.63;;;11.50;99.90;;;;;;4844144;29;20231;-60
2023/05/15 07:42:44;;;;;;;70.50;30.13;;;11.70;99.90;;;;;;4837789;29;20286;-59
2023/05/15 07:45:12;;;;;;;76.43;31.10;;;11.70;99.90;;;;;;4863509;29;20259;-59
2023/05/15 07:47:44;;;;;;;63.17;28.83;;;11.80;99.90;;;;;;4861495;29;20258;-60
2023/05/15 07:50:13;;;;;;;65.90;28.97;;;11.60;99.90;;;;;;4857830;29;20781;-59
2023/05/15 07:52:42;;;;;;;67.93;31.00;;;11.50;99.90;;;;;;4862658;29;20279;-60
2023/05/15 07:55:12;;;;;;;72.20;29.73;;;11.50;99.90;;;;;;4853367;29;20291;-61
2023/05/15 07:57:40;;;;;;;65.30;28.37;;;11.50;99.90;;;;;;4861514;29;20551;-60
2023/05/15 08:00:11;;;;;;;66.63;28.77;;;11.60;99.90;;;;;;4862303;29;20215;-59
2023/05/15 08:02:39;;;;;;;66.57;29.93;;;12.00;99.90;;;;;;4842491;29;20231;-60
2023/05/15 08:05:08;;;;;;;73.10;29.93;;;12.20;99.90;;;;;;4857630;29;20766;-59
2023/05/15 08:07:37;;;;;;;69.53;29.80;;;12.50;99.90;;;;;;4862425;29;20275;-60
2023/05/15 08:10:06;;;;;;;67.03;29.53;;;12.70;99.90;;;;;;4862262;29;20235;-60
2023/05/15 08:12:37;;;;;;;68.40;29.43;;;12.60;99.90;;;;;;4862452;29;20247;-59
2023/05/15 08:15:05;;;;;;;66.40;27.27;;;12.60;99.90;;;;;;4862625;29;20271;-60
2023/05/15 08:17:34;;;;;;;67.43;28.67;;;12.70;99.90;;;;;;4852119;29;20227;-60
2023/05/15 08:20:03;;;;;;;59.37;26.27;;;12.90;99.90;;;;;;4850099;29;20267;-59
2023/05/15 08:22:32;;;;;;;66.37;29.43;;;13.00;99.90;;;;;;4861936;29;20755;-60
2023/05/15 08:25:02;;;;;;;63.83;29.00;;;12.90;99.90;;;;;;4862064;29;20223;-60
2023/05/15 08:27:30;;;;;;;73.87;30.57;;;12.80;99.90;;;;;;4862209;29;20214;-60
2023/05/15 08:30:00;;;;;;;62.67;28.10;;;12.70;99.90;;;;;;4862586;29;20239;-59
2023/05/15 08:32:28;;;;;;;66.43;28.83;;;12.70;99.90;;;;;;4861470;29;20314;-60
2023/05/15 08:34:57;;;;;;;73.07;29.97;;;12.70;99.90;;;;;;4861968;29;20319;-61
2023/05/15 08:37:25;;;;;;;74.83;31.53;;;12.80;99.90;;;;;;4861995;29;20858;-59
2023/05/15 08:39:54;;;;;;;76.10;31.30;;;13.00;99.90;;;;;;4860231;29;20219;-60
2023/05/15 08:42:28;;;;;;;72.50;30.73;;;13.40;99.90;;;;;;4861917;29;20203;-60
2023/05/15 08:44:57;;;;;;;69.87;30.10;;;13.60;95.20;;;;;;4862113;29;20203;-60
2023/05/15 08:47:28;;;;;;;69.97;30.47;;;13.60;95.50;;;;;;4854616;29;20240;-60
2023/05/15 08:50:05;;;;;;;74.03;31.33;;;13.60;94.00;;;;;;4861370;29;20296;-61
2023/05/15 08:52:34;;;;;;;75.23;32.53;;;13.70;95.50;;;;;;4856486;29;20230;-61
2023/05/15 08:55:04;;;;;;;75.83;31.43;;;13.90;88.80;;;;;;4868807;29;20239;-60
2023/05/15 08:57:33;;;;;;;69.40;30.53;;;14.10;82.90;;;;;;4860741;29;20192;-60
2023/05/15 09:00:04;;;;;;;78.03;32.00;;;14.30;64.70;;;;;;4849198;29;20201;-60
2023/05/15 09:02:38;;;;;;;68.23;30.73;;;14.30;71.20;;;;;;4860442;29;20231;-60
2023/05/15 09:05:07;;;;;;;76.80;32.30;;;14.20;63.10;;;;;;4839758;29;20241;-61
2023/05/15 09:07:37;;;;;;;71.53;30.47;;;14.10;73.30;;;;;;4851529;29;20220;-60
2023/05/15 09:10:07;;;;;;;79.43;32.70;;;14.10;79.00;;;;;;4842522;29;20228;-60
2023/05/15 09:12:38;;;;;;;76.10;30.20;;;14.10;77.50;;;;;;4842769;29;20236;-60
2023/05/15 09:15:10;;;;;;;78.27;32.80;;;14.10;73.10;;;;;;4841663;29;20287;-60
2023/05/15 09:17:41;;;;;;;76.53;31.07;;;14.00;72.10;;;;;;4842857;29;20234;-59
2023/05/15 09:20:26;;;;;;;80.33;32.30;;;14.00;78.20;;;;;;4842765;29;20289;-60
2023/05/15 09:22:54;;;;;;;74.73;31.13;;;14.00;92.10;;;;;;4836899;29;20228;-60
2023/05/15 09:25:34;;;;;;;85.67;34.60;;;14.10;94.80;;;;;;4828818;29;20240;-60
2023/05/15 09:28:02;;;;;;;90.13;35.70;;;14.00;77.20;;;;;;4842593;29;20244;-60
2023/05/15 09:30:31;;;;;;;89.83;35.57;;;13.90;81.80;;;;;;4842503;29;20282;-60
2023/05/15 09:33:02;;;;;;;91.10;35.47;;;13.90;92.30;;;;;;4843071;29;20196;-60
2023/05/15 09:35:35;;;;;;;85.50;35.57;;;13.80;87.50;;;;;;4842376;29;20281;-60
2023/05/15 09:38:07;;;;;;;90.57;37.73;;;13.80;95.30;;;;;;4834785;29;20281;-60
2023/05/15 09:40:36;;;;;;;86.07;35.77;;;13.70;96.50;;;;;;4839878;29;20322;-59
2023/05/15 09:43:04;;;;;;;80.97;35.87;;;13.50;96.50;;;;;;4841500;29;20280;-59
2023/05/15 09:45:32;;;;;;;83.00;36.47;;;13.50;99.40;;;;;;4842282;29;20204;-59
2023/05/15 09:48:05;;;;;;;82.73;35.73;;;13.40;99.90;;;;;;4842655;29;20212;-60
2023/05/15 09:50:35;;;;;;;85.33;36.97;;;13.40;99.90;;;;;;4841892;29;20220;-60
2023/05/15 09:53:04;;;;;;;85.10;36.80;;;13.40;99.90;;;;;;4854725;29;20307;-59
2023/05/15 09:55:33;;;;;;;87.57;37.97;;;13.40;99.90;;;;;;4842282;29;20230;-60
2023/05/15 09:58:07;;;;;;;88.07;39.03;;;13.50;99.90;;;;;;4826022;29;20223;-60
2023/05/15 10:00:36;;;;;;;91.30;40.87;;;13.60;99.90;;;;;;4842254;29;20219;-59
2023/05/15 10:03:18;;;;;;;83.30;39.03;;;13.70;97.80;;;;;;4841620;29;20276;-60
2023/05/15 10:05:47;;;;;;;91.07;40.80;;;13.80;98.20;;;;;;4855274;29;20340;-60
2023/05/15 10:08:16;;;;;;;91.03;38.83;;;14.00;95.60;;;;;;4847052;29;20675;-60
2023/05/15 10:10:45;;;;;;;109.80;45.83;;;14.20;93.50;;;;;;4842156;29;20232;-60
2023/05/15 10:13:13;;;;;;;102.10;45.37;;;14.40;88.20;;;;;;4857856;29;20247;-60
2023/05/15 10:15:42;;;;;;;97.37;43.03;;;14.60;82.00;;;;;;4860719;29;20239;-60
2023/05/15 10:18:12;;;;;;;87.33;39.50;;;14.70;77.20;;;;;;4858966;29;20200;-60
2023/05/15 10:20:42;;;;;;;89.20;41.00;;;14.80;55.90;;;;;;4856722;29;20227;-60
2023/05/15 10:23:12;;;;;;;79.60;38.83;;;14.80;65.50;;;;;;4842763;29;20324;-59
2023/05/15 10:25:44;;;;;;;78.43;38.17;;;14.70;65.00;;;;;;4853818;29;20238;-60
2023/05/15 10:28:14;;;;;;;80.23;38.23;;;14.50;65.40;;;;;;4854570;29;20228;-60
2023/05/15 10:30:43;;;;;;;77.63;37.33;;;14.40;78.80;;;;;;4858331;29;20746;-60
2023/05/15 10:33:13;;;;;;;66.37;34.23;;;14.20;87.50;;;;;;4850400;29;20262;-60
2023/05/15 10:35:43;;;;;;;69.47;34.83;;;14.10;83.50;;;;;;4855849;29;20576;-60
2023/05/15 10:38:12;;;;;;;75.67;35.43;;;14.00;88.40;;;;;;4860361;29;20235;-60
2023/05/15 10:40:41;;;;;;;74.40;36.03;;;13.90;96.60;;;;;;4851066;29;20605;-60
2023/05/15 10:43:11;;;;;;;72.70;36.20;;;13.80;95.80;;;;;;4841922;29;20228;-59
2023/05/15 10:45:40;;;;;;;72.63;34.20;;;13.70;99.90;;;;;;4851552;29;20208;-60
2023/05/15 10:48:11;;;;;;;72.43;33.87;;;13.60;97.90;;;;;;4860936;29;20249;-59
2023/05/15 10:50:39;;;;;;;66.60;34.13;;;13.70;99.90;;;;;;4860033;29;20247;-60
2023/05/15 10:53:11;;;;;;;69.77;33.93;;;13.60;99.90;;;;;;4854229;29;20292;-60
2023/05/15 10:55:39;;;;;;;70.83;34.07;;;13.60;99.90;;;;;;4862513;29;20232;-60
2023/05/15 10:58:11;;;;;;;71.07;35.80;;;13.60;99.90;;;;;;4861374;29;20295;-60
2023/05/15 11:00:46;;;;;;;62.90;32.60;;;13.70;99.90;;;;;;4856306;29;20249;-60
2023/05/15 11:03:15;;;;;;;67.93;35.13;;;13.70;99.90;;;;;;4848520;29;20227;-61
2023/05/15 11:06:08;;;;;;;68.47;35.03;;;13.80;99.90;;;;;;4859766;29;20243;-59
2023/05/15 11:08:39;;;;;;;69.33;35.03;;;13.80;99.90;;;;;;4847457;29;20291;-60
2023/05/15 11:11:07;;;;;;;67.07;34.13;;;13.70;99.20;;;;;;4863184;29;20782;-59
2023/05/15 11:14:12;;;;;;;72.13;34.10;;;13.70;99.90;;;;;;4863431;29;20235;-60
2023/05/15 11:16:59;;;;;;;64.37;32.57;;;13.70;99.90;;;;;;4832124;29;20236;-62
2023/05/15 11:19:36;;;;;;;60.77;31.10;;;13.60;99.90;;;;;;4853059;29;20744;-60
2023/05/15 11:22:17;;;;;;;64.57;32.33;;;13.60;99.90;;;;;;4862897;29;20729;-60
2023/05/15 11:24:52;;;;;;;70.17;33.37;;;13.50;99.90;;;;;;4855842;29;20231;-60
2023/05/15 11:27:21;;;;;;;62.13;31.60;;;13.50;99.90;;;;;;4859665;29;20550;-60
2023/05/15 11:30:11;;;;;;;66.23;31.90;;;13.40;99.90;;;;;;4856893;29;20227;-60
2023/05/15 11:32:43;;;;;;;65.03;31.77;;;13.40;99.90;;;;;;4844996;29;20281;-61
2023/05/15 11:35:12;;;;;;;65.33;32.23;;;13.40;99.90;;;;;;4844703;29;20239;-60
2023/05/15 11:37:46;;;;;;;67.13;32.87;;;13.30;99.90;;;;;;4849475;29;20227;-60
2023/05/15 11:40:20;;;;;;;64.13;30.37;;;13.20;99.90;;;;;;4863168;29;20227;-60
2023/05/15 11:43:03;;;;;;;62.70;31.03;;;13.10;99.90;;;;;;4850091;29;20236;-60
2023/05/15 11:45:34;;;;;;;67.87;31.20;;;13.00;99.90;;;;;;4863183;29;20208;-60
2023/05/15 11:48:05;;;;;;;63.47;31.00;;;13.00;99.90;;;;;;4863339;29;20654;-60
2023/05/15 11:50:35;;;;;;;64.77;30.60;;;13.00;99.90;;;;;;4862744;29;20264;-61
2023/05/15 11:53:05;;;;;;;63.97;30.20;;;12.90;99.90;;;;;;4862369;29;20565;-60
2023/05/15 11:55:36;;;;;;;64.67;30.27;;;12.90;99.90;;;;;;4862078;29;20721;-60
2023/05/15 11:58:05;;;;;;;61.53;28.20;;;12.80;99.90;;;;;;4845944;29;20718;-60
2023/05/15 12:00:34;;;;;;;68.93;30.00;;;12.80;99.90;;;;;;4862491;29;20195;-60
2023/05/15 12:03:03;;;;;;;66.73;30.00;;;12.80;99.90;;;;;;4863001;29;20651;-60
2023/05/15 12:05:32;;;;;;;58.93;27.83;;;12.80;99.90;;;;;;4861600;29;20652;-61
2023/05/15 12:08:02;;;;;;;57.93;26.00;;;12.90;99.90;;;;;;4861968;29;20242;-60
2023/05/15 12:10:31;;;;;;;61.37;27.20;;;13.00;99.90;;;;;;4862018;29;20238;-60
2023/05/15 12:13:01;;;;;;;49.50;23.67;;;13.00;99.90;;;;;;4862005;29;20231;-61
2023/05/15 12:15:29;;;;;;;29.27;14.33;;;13.00;99.90;;;;;;4862116;29;20207;-60
2023/05/15 12:17:57;;;;;;;19.27;10.90;;;13.00;99.90;;;;;;4862925;29;20211;-61
2023/05/15 12:20:26;;;;;;;13.50;8.97;;;12.80;99.90;;;;;;4861478;29;20219;-60
2023/05/15 12:26:35;;;;;;;11.67;8.63;;;12.60;99.90;;;;;;4846325;29;20235;-60
2023/05/15 12:29:05;;;;;;;12.20;8.60;;;12.60;99.90;;;;;;4862065;29;20332;-60
2023/05/15 12:31:35;;;;;;;12.43;9.20;;;12.60;99.90;;;;;;4861692;29;20223;-60
2023/05/15 12:34:04;;;;;;;10.93;8.80;;;12.50;99.90;;;;;;4861793;29;20223;-60
2023/05/15 12:36:32;;;;;;;10.97;8.47;;;12.50;99.90;;;;;;4862217;29;20203;-60
2023/05/15 12:39:06;;;;;;;10.30;8.50;;;12.50;99.90;;;;;;4862492;29;20205;-61
2023/05/15 12:41:37;;;;;;;14.20;7.30;;;12.50;99.90;;;;;;4861911;29;20230;-60
2023/05/15 12:44:15;;;;;;;7.03;5.30;;;12.50;99.90;;;;;;4861899;29;20231;-60
2023/05/15 12:46:43;;;;;;;11.43;4.93;;;12.50;99.90;;;;;;4843225;29;20300;-60
2023/05/15 12:49:12;;;;;;;8.17;4.77;;;12.50;99.90;;;;;;4843586;29;20228;-60
2023/05/15 12:51:43;;;;;;;5.93;4.97;;;12.60;99.90;;;;;;4852240;29;20203;-60
2023/05/15 12:54:18;;;;;;;6.47;5.23;;;12.70;99.90;;;;;;4862433;29;20200;-61
2023/05/15 12:56:47;;;;;;;4.80;4.37;;;12.80;99.90;;;;;;4844413;29;20582;-60
2023/05/15 12:59:17;;;;;;;6.53;4.50;;;12.70;99.90;;;;;;4861503;29;20235;-60